sensor_id;sensor_type;location;lat;lon;timestamp;P1;durP1;ratioP1;P2;durP2;ratioP2
62153;SDS011;48140;45.486;9.226;2023-02-01T00:02:18;33.13;;;16.30;;
62153;SDS011;48140;45.486;9.226;2023-02-01T00:04:44;32.72;;;16.95;;
62153;SDS011;48140;45.486;9.226;2023-02-01T00:07:10;32.03;;;15.63;;
62153;SDS011;48140;45.486;9.226;2023-02-01T00:09:35;32.08;;;15.90;;
62153;SDS011;48140;45.486;9.226;2023-02-01T00:12:01;35.30;;;16.50;;
62153;SDS011;48140;45.486;9.226;2023-02-01T00:14:28;31.60;;;15.75;;
62153;SDS011;48140;45.486;9.226;2023-02-01T00:16:53;33.75;;;15.68;;
62153;SDS011;48140;45.486;9.226;2023-02-01T00:19:19;30.58;;;16.55;;
62153;SDS011;48140;45.486;9.226;2023-02-01T00:21:45;30.77;;;16.98;;
62153;SDS011;48140;45.486;9.226;2023-02-01T00:24:11;34.65;;;16.00;;
62153;SDS011;48140;45.486;9.226;2023-02-01T00:26:38;38.33;;;17.20;;
62153;SDS011;48140;45.486;9.226;2023-02-01T00:29:09;31.38;;;15.68;;
62153;SDS011;48140;45.486;9.226;2023-02-01T00:31:37;37.03;;;16.77;;
62153;SDS011;48140;45.486;9.226;2023-02-01T00:34:03;33.78;;;16.30;;
62153;SDS011;48140;45.486;9.226;2023-02-01T00:36:29;26.98;;;14.82;;
62153;SDS011;48140;45.486;9.226;2023-02-01T00:38:56;34.38;;;16.48;;
62153;SDS011;48140;45.486;9.226;2023-02-01T00:41:22;33.97;;;15.85;;
62153;SDS011;48140;45.486;9.226;2023-02-01T00:43:48;32.47;;;15.57;;
62153;SDS011;48140;45.486;9.226;2023-02-01T00:46:17;34.47;;;16.15;;
62153;SDS011;48140;45.486;9.226;2023-02-01T00:48:44;33.90;;;16.10;;
62153;SDS011;48140;45.486;9.226;2023-02-01T00:51:15;31.85;;;14.82;;
62153;SDS011;48140;45.486;9.226;2023-02-01T00:53:49;29.33;;;16.33;;
62153;SDS011;48140;45.486;9.226;2023-02-01T00:56:15;26.75;;;14.55;;
62153;SDS011;48140;45.486;9.226;2023-02-01T00:58:41;32.90;;;14.68;;
62153;SDS011;48140;45.486;9.226;2023-02-01T01:01:08;36.13;;;16.50;;
62153;SDS011;48140;45.486;9.226;2023-02-01T01:03:35;37.65;;;15.95;;
62153;SDS011;48140;45.486;9.226;2023-02-01T01:06:04;40.90;;;15.95;;
62153;SDS011;48140;45.486;9.226;2023-02-01T01:08:31;35.10;;;15.10;;
62153;SDS011;48140;45.486;9.226;2023-02-01T01:10:58;27.92;;;14.10;;
62153;SDS011;48140;45.486;9.226;2023-02-01T01:13:28;31.13;;;14.57;;
62153;SDS011;48140;45.486;9.226;2023-02-01T01:15:53;26.52;;;13.48;;
62153;SDS011;48140;45.486;9.226;2023-02-01T01:18:19;29.27;;;14.63;;
62153;SDS011;48140;45.486;9.226;2023-02-01T01:20:45;28.83;;;14.13;;
62153;SDS011;48140;45.486;9.226;2023-02-01T01:23:12;34.63;;;16.02;;
62153;SDS011;48140;45.486;9.226;2023-02-01T01:25:38;30.77;;;14.70;;
62153;SDS011;48140;45.486;9.226;2023-02-01T01:28:05;29.52;;;13.75;;
62153;SDS011;48140;45.486;9.226;2023-02-01T01:30:33;24.98;;;13.13;;
62153;SDS011;48140;45.486;9.226;2023-02-01T01:32:59;22.90;;;13.52;;
62153;SDS011;48140;45.486;9.226;2023-02-01T01:35:25;24.27;;;12.90;;
62153;SDS011;48140;45.486;9.226;2023-02-01T01:37:51;25.80;;;12.70;;
62153;SDS011;48140;45.486;9.226;2023-02-01T01:40:16;27.05;;;12.50;;
62153;SDS011;48140;45.486;9.226;2023-02-01T01:42:42;27.65;;;12.52;;
62153;SDS011;48140;45.486;9.226;2023-02-01T01:47:52;28.27;;;13.60;;
62153;SDS011;48140;45.486;9.226;2023-02-01T01:50:25;24.63;;;12.25;;
62153;SDS011;48140;45.486;9.226;2023-02-01T01:52:54;22.08;;;12.57;;
62153;SDS011;48140;45.486;9.226;2023-02-01T01:55:24;22.98;;;11.60;;
62153;SDS011;48140;45.486;9.226;2023-02-01T01:57:53;27.23;;;12.93;;
62153;SDS011;48140;45.486;9.226;2023-02-01T02:00:24;25.73;;;13.27;;
62153;SDS011;48140;45.486;9.226;2023-02-01T02:02:53;26.90;;;12.82;;
62153;SDS011;48140;45.486;9.226;2023-02-01T02:05:22;21.58;;;10.70;;
62153;SDS011;48140;45.486;9.226;2023-02-01T02:07:49;24.38;;;11.38;;
62153;SDS011;48140;45.486;9.226;2023-02-01T02:10:17;21.80;;;12.35;;
62153;SDS011;48140;45.486;9.226;2023-02-01T02:12:44;24.40;;;10.60;;
62153;SDS011;48140;45.486;9.226;2023-02-01T02:15:12;23.13;;;12.32;;
62153;SDS011;48140;45.486;9.226;2023-02-01T02:17:44;23.33;;;11.77;;
62153;SDS011;48140;45.486;9.226;2023-02-01T02:29:40;26.58;;;13.27;;
62153;SDS011;48140;45.486;9.226;2023-02-01T02:32:40;27.13;;;10.77;;
62153;SDS011;48140;45.486;9.226;2023-02-01T02:38:13;24.73;;;12.13;;
62153;SDS011;48140;45.486;9.226;2023-02-01T02:44:27;19.83;;;10.80;;
62153;SDS011;48140;45.486;9.226;2023-02-01T02:47:31;25.50;;;11.10;;
62153;SDS011;48140;45.486;9.226;2023-02-01T02:50:24;20.30;;;10.75;;
62153;SDS011;48140;45.486;9.226;2023-02-01T02:53:16;21.65;;;10.43;;
62153;SDS011;48140;45.486;9.226;2023-02-01T02:56:05;23.73;;;10.63;;
62153;SDS011;48140;45.486;9.226;2023-02-01T02:58:50;22.85;;;10.88;;
62153;SDS011;48140;45.486;9.226;2023-02-01T03:01:36;21.13;;;9.85;;
62153;SDS011;48140;45.486;9.226;2023-02-01T03:04:21;20.52;;;10.82;;
62153;SDS011;48140;45.486;9.226;2023-02-01T03:06:51;20.92;;;10.70;;
62153;SDS011;48140;45.486;9.226;2023-02-01T03:09:20;20.80;;;9.77;;
62153;SDS011;48140;45.486;9.226;2023-02-01T03:11:51;19.67;;;10.75;;
62153;SDS011;48140;45.486;9.226;2023-02-01T03:14:40;21.13;;;10.73;;
62153;SDS011;48140;45.486;9.226;2023-02-01T03:17:14;18.13;;;9.32;;
62153;SDS011;48140;45.486;9.226;2023-02-01T03:19:45;19.55;;;9.57;;
62153;SDS011;48140;45.486;9.226;2023-02-01T03:22:20;18.05;;;9.90;;
62153;SDS011;48140;45.486;9.226;2023-02-01T03:24:55;15.95;;;9.40;;
62153;SDS011;48140;45.486;9.226;2023-02-01T03:27:35;21.83;;;9.95;;
62153;SDS011;48140;45.486;9.226;2023-02-01T03:30:30;15.48;;;8.55;;
62153;SDS011;48140;45.486;9.226;2023-02-01T03:33:01;17.37;;;8.67;;
62153;SDS011;48140;45.486;9.226;2023-02-01T03:41:06;19.52;;;9.27;;
62153;SDS011;48140;45.486;9.226;2023-02-01T03:44:06;16.70;;;8.52;;
62153;SDS011;48140;45.486;9.226;2023-02-01T03:46:53;16.50;;;7.80;;
62153;SDS011;48140;45.486;9.226;2023-02-01T03:49:27;15.98;;;7.88;;
62153;SDS011;48140;45.486;9.226;2023-02-01T03:51:58;20.88;;;8.43;;
62153;SDS011;48140;45.486;9.226;2023-02-01T03:54:25;18.80;;;8.40;;
62153;SDS011;48140;45.486;9.226;2023-02-01T03:56:54;20.92;;;8.93;;
62153;SDS011;48140;45.486;9.226;2023-02-01T03:59:22;23.70;;;9.13;;
62153;SDS011;48140;45.486;9.226;2023-02-01T04:01:49;16.80;;;8.32;;
62153;SDS011;48140;45.486;9.226;2023-02-01T04:04:15;20.42;;;8.73;;
62153;SDS011;48140;45.486;9.226;2023-02-01T04:06:48;20.10;;;8.20;;
62153;SDS011;48140;45.486;9.226;2023-02-01T04:09:14;18.02;;;8.50;;
62153;SDS011;48140;45.486;9.226;2023-02-01T04:11:40;16.25;;;8.93;;
62153;SDS011;48140;45.486;9.226;2023-02-01T04:14:05;14.88;;;8.43;;
62153;SDS011;48140;45.486;9.226;2023-02-01T04:16:31;17.92;;;8.15;;
62153;SDS011;48140;45.486;9.226;2023-02-01T04:18:58;17.23;;;8.35;;
62153;SDS011;48140;45.486;9.226;2023-02-01T04:21:24;15.77;;;8.15;;
62153;SDS011;48140;45.486;9.226;2023-02-01T04:23:50;14.85;;;7.70;;
62153;SDS011;48140;45.486;9.226;2023-02-01T04:26:16;18.38;;;8.05;;
62153;SDS011;48140;45.486;9.226;2023-02-01T04:28:42;19.48;;;7.65;;
62153;SDS011;48140;45.486;9.226;2023-02-01T04:31:07;15.18;;;8.18;;
62153;SDS011;48140;45.486;9.226;2023-02-01T04:33:33;15.05;;;7.82;;
62153;SDS011;48140;45.486;9.226;2023-02-01T04:35:59;14.63;;;7.35;;
62153;SDS011;48140;45.486;9.226;2023-02-01T04:38:25;18.55;;;8.07;;
62153;SDS011;48140;45.486;9.226;2023-02-01T04:40:51;15.13;;;7.40;;
62153;SDS011;48140;45.486;9.226;2023-02-01T04:43:17;19.50;;;8.90;;
62153;SDS011;48140;45.486;9.226;2023-02-01T04:45:46;20.40;;;7.65;;
62153;SDS011;48140;45.486;9.226;2023-02-01T04:48:13;17.13;;;7.43;;
62153;SDS011;48140;45.486;9.226;2023-02-01T04:50:40;14.43;;;7.05;;
62153;SDS011;48140;45.486;9.226;2023-02-01T04:53:05;14.90;;;7.18;;
62153;SDS011;48140;45.486;9.226;2023-02-01T04:55:31;15.13;;;8.02;;
62153;SDS011;48140;45.486;9.226;2023-02-01T04:57:57;15.77;;;6.90;;
62153;SDS011;48140;45.486;9.226;2023-02-01T05:00:22;15.85;;;7.57;;
62153;SDS011;48140;45.486;9.226;2023-02-01T05:02:48;13.60;;;6.82;;
62153;SDS011;48140;45.486;9.226;2023-02-01T05:05:14;20.20;;;7.38;;
62153;SDS011;48140;45.486;9.226;2023-02-01T05:07:39;12.48;;;6.82;;
62153;SDS011;48140;45.486;9.226;2023-02-01T05:10:05;15.25;;;6.43;;
62153;SDS011;48140;45.486;9.226;2023-02-01T05:12:31;20.55;;;6.47;;
62153;SDS011;48140;45.486;9.226;2023-02-01T05:15:15;12.10;;;6.18;;
62153;SDS011;48140;45.486;9.226;2023-02-01T05:17:42;15.77;;;6.43;;
62153;SDS011;48140;45.486;9.226;2023-02-01T05:20:09;12.48;;;7.00;;
62153;SDS011;48140;45.486;9.226;2023-02-01T05:22:35;16.83;;;7.05;;
62153;SDS011;48140;45.486;9.226;2023-02-01T05:25:01;14.00;;;6.95;;
62153;SDS011;48140;45.486;9.226;2023-02-01T05:27:28;16.15;;;6.70;;
62153;SDS011;48140;45.486;9.226;2023-02-01T05:29:55;17.60;;;6.40;;
62153;SDS011;48140;45.486;9.226;2023-02-01T05:32:21;17.05;;;7.15;;
62153;SDS011;48140;45.486;9.226;2023-02-01T05:34:46;12.10;;;5.97;;
62153;SDS011;48140;45.486;9.226;2023-02-01T05:37:12;12.23;;;6.22;;
62153;SDS011;48140;45.486;9.226;2023-02-01T05:39:38;12.32;;;6.43;;
62153;SDS011;48140;45.486;9.226;2023-02-01T05:42:03;12.85;;;6.43;;
62153;SDS011;48140;45.486;9.226;2023-02-01T05:44:29;15.45;;;7.50;;
62153;SDS011;48140;45.486;9.226;2023-02-01T05:46:54;12.98;;;6.68;;
62153;SDS011;48140;45.486;9.226;2023-02-01T05:49:20;11.52;;;7.05;;
62153;SDS011;48140;45.486;9.226;2023-02-01T05:51:46;8.93;;;4.85;;
62153;SDS011;48140;45.486;9.226;2023-02-01T05:54:11;15.73;;;6.93;;
62153;SDS011;48140;45.486;9.226;2023-02-01T05:56:37;11.70;;;5.70;;
62153;SDS011;48140;45.486;9.226;2023-02-01T05:59:02;10.27;;;6.28;;
62153;SDS011;48140;45.486;9.226;2023-02-01T06:01:28;20.75;;;6.68;;
62153;SDS011;48140;45.486;9.226;2023-02-01T06:03:54;12.90;;;5.97;;
62153;SDS011;48140;45.486;9.226;2023-02-01T06:06:19;18.70;;;6.50;;
62153;SDS011;48140;45.486;9.226;2023-02-01T06:08:45;11.27;;;6.03;;
62153;SDS011;48140;45.486;9.226;2023-02-01T06:11:11;14.20;;;6.13;;
62153;SDS011;48140;45.486;9.226;2023-02-01T06:13:38;13.93;;;6.50;;
62153;SDS011;48140;45.486;9.226;2023-02-01T06:16:04;13.25;;;5.85;;
62153;SDS011;48140;45.486;9.226;2023-02-01T06:18:32;18.20;;;6.55;;
62153;SDS011;48140;45.486;9.226;2023-02-01T06:20:58;12.02;;;6.55;;
62153;SDS011;48140;45.486;9.226;2023-02-01T06:23:28;11.95;;;6.20;;
62153;SDS011;48140;45.486;9.226;2023-02-01T06:25:58;14.43;;;6.20;;
62153;SDS011;48140;45.486;9.226;2023-02-01T06:28:29;12.23;;;6.80;;
62153;SDS011;48140;45.486;9.226;2023-02-01T06:30:56;14.93;;;7.28;;
62153;SDS011;48140;45.486;9.226;2023-02-01T06:33:23;14.55;;;6.13;;
62153;SDS011;48140;45.486;9.226;2023-02-01T06:35:55;15.10;;;6.75;;
62153;SDS011;48140;45.486;9.226;2023-02-01T06:38:25;15.55;;;7.03;;
62153;SDS011;48140;45.486;9.226;2023-02-01T06:40:54;16.75;;;6.45;;
62153;SDS011;48140;45.486;9.226;2023-02-01T06:43:21;13.25;;;6.82;;
62153;SDS011;48140;45.486;9.226;2023-02-01T06:45:47;19.25;;;6.32;;
62153;SDS011;48140;45.486;9.226;2023-02-01T06:48:13;15.13;;;7.45;;
62153;SDS011;48140;45.486;9.226;2023-02-01T06:50:38;14.80;;;7.55;;
62153;SDS011;48140;45.486;9.226;2023-02-01T06:53:04;14.75;;;7.13;;
62153;SDS011;48140;45.486;9.226;2023-02-01T06:55:30;16.08;;;6.53;;
62153;SDS011;48140;45.486;9.226;2023-02-01T06:57:55;15.10;;;6.40;;
62153;SDS011;48140;45.486;9.226;2023-02-01T07:00:24;11.32;;;5.68;;
62153;SDS011;48140;45.486;9.226;2023-02-01T07:02:50;13.60;;;7.13;;
62153;SDS011;48140;45.486;9.226;2023-02-01T07:05:16;14.82;;;6.63;;
62153;SDS011;48140;45.486;9.226;2023-02-01T07:07:42;13.77;;;6.72;;
62153;SDS011;48140;45.486;9.226;2023-02-01T07:10:07;12.63;;;5.43;;
62153;SDS011;48140;45.486;9.226;2023-02-01T07:12:34;18.15;;;6.93;;
62153;SDS011;48140;45.486;9.226;2023-02-01T07:15:00;18.13;;;6.45;;
62153;SDS011;48140;45.486;9.226;2023-02-01T07:17:27;10.82;;;6.13;;
62153;SDS011;48140;45.486;9.226;2023-02-01T07:19:54;13.00;;;5.75;;
62153;SDS011;48140;45.486;9.226;2023-02-01T07:22:20;11.95;;;5.85;;
62153;SDS011;48140;45.486;9.226;2023-02-01T07:24:46;13.40;;;7.03;;
62153;SDS011;48140;45.486;9.226;2023-02-01T07:27:11;12.07;;;5.85;;
62153;SDS011;48140;45.486;9.226;2023-02-01T07:29:37;12.23;;;6.45;;
62153;SDS011;48140;45.486;9.226;2023-02-01T07:32:03;12.30;;;6.00;;
62153;SDS011;48140;45.486;9.226;2023-02-01T07:34:29;11.88;;;6.10;;
62153;SDS011;48140;45.486;9.226;2023-02-01T07:36:56;14.68;;;7.22;;
62153;SDS011;48140;45.486;9.226;2023-02-01T07:39:21;12.02;;;5.70;;
62153;SDS011;48140;45.486;9.226;2023-02-01T07:41:47;11.75;;;6.22;;
62153;SDS011;48140;45.486;9.226;2023-02-01T07:44:13;11.52;;;6.00;;
62153;SDS011;48140;45.486;9.226;2023-02-01T07:46:39;14.77;;;6.97;;
62153;SDS011;48140;45.486;9.226;2023-02-01T07:49:08;13.48;;;5.70;;
62153;SDS011;48140;45.486;9.226;2023-02-01T07:51:33;13.02;;;5.85;;
62153;SDS011;48140;45.486;9.226;2023-02-01T07:53:59;13.82;;;6.45;;
62153;SDS011;48140;45.486;9.226;2023-02-01T07:56:26;11.10;;;5.82;;
62153;SDS011;48140;45.486;9.226;2023-02-01T07:58:52;13.25;;;6.65;;
62153;SDS011;48140;45.486;9.226;2023-02-01T08:01:25;17.50;;;6.30;;
62153;SDS011;48140;45.486;9.226;2023-02-01T08:03:55;9.98;;;5.93;;
62153;SDS011;48140;45.486;9.226;2023-02-01T08:06:24;12.75;;;5.70;;
62153;SDS011;48140;45.486;9.226;2023-02-01T08:08:50;12.93;;;6.40;;
62153;SDS011;48140;45.486;9.226;2023-02-01T08:11:17;13.90;;;6.75;;
62153;SDS011;48140;45.486;9.226;2023-02-01T08:13:43;14.95;;;6.47;;
62153;SDS011;48140;45.486;9.226;2023-02-01T08:16:11;11.80;;;6.07;;
62153;SDS011;48140;45.486;9.226;2023-02-01T08:18:38;15.38;;;6.55;;
62153;SDS011;48140;45.486;9.226;2023-02-01T08:21:05;12.88;;;6.75;;
62153;SDS011;48140;45.486;9.226;2023-02-01T08:23:33;11.73;;;6.57;;
62153;SDS011;48140;45.486;9.226;2023-02-01T08:26:04;11.95;;;5.70;;
62153;SDS011;48140;45.486;9.226;2023-02-01T08:28:38;10.73;;;6.10;;
62153;SDS011;48140;45.486;9.226;2023-02-01T08:31:06;23.70;;;6.13;;
62153;SDS011;48140;45.486;9.226;2023-02-01T08:33:33;13.95;;;6.75;;
62153;SDS011;48140;45.486;9.226;2023-02-01T08:36:01;12.30;;;5.78;;
62153;SDS011;48140;45.486;9.226;2023-02-01T08:38:29;13.35;;;6.45;;
62153;SDS011;48140;45.486;9.226;2023-02-01T08:40:54;14.63;;;6.50;;
62153;SDS011;48140;45.486;9.226;2023-02-01T08:43:20;15.05;;;6.53;;
62153;SDS011;48140;45.486;9.226;2023-02-01T08:45:46;11.98;;;6.65;;
62153;SDS011;48140;45.486;9.226;2023-02-01T08:48:12;13.60;;;6.78;;
62153;SDS011;48140;45.486;9.226;2023-02-01T08:50:37;13.32;;;6.35;;
62153;SDS011;48140;45.486;9.226;2023-02-01T08:53:03;14.25;;;6.32;;
62153;SDS011;48140;45.486;9.226;2023-02-01T08:55:29;13.80;;;6.50;;
62153;SDS011;48140;45.486;9.226;2023-02-01T08:57:55;12.75;;;6.53;;
62153;SDS011;48140;45.486;9.226;2023-02-01T09:00:21;14.13;;;6.47;;
62153;SDS011;48140;45.486;9.226;2023-02-01T09:02:47;12.60;;;6.35;;
62153;SDS011;48140;45.486;9.226;2023-02-01T09:05:12;20.20;;;7.35;;
62153;SDS011;48140;45.486;9.226;2023-02-01T09:07:41;11.10;;;6.05;;
62153;SDS011;48140;45.486;9.226;2023-02-01T09:10:07;11.23;;;6.40;;
62153;SDS011;48140;45.486;9.226;2023-02-01T09:12:34;18.25;;;6.70;;
62153;SDS011;48140;45.486;9.226;2023-02-01T09:15:00;15.68;;;6.88;;
62153;SDS011;48140;45.486;9.226;2023-02-01T09:17:27;13.43;;;7.57;;
62153;SDS011;48140;45.486;9.226;2023-02-01T09:19:53;15.70;;;6.55;;
62153;SDS011;48140;45.486;9.226;2023-02-01T09:22:19;17.48;;;7.78;;
62153;SDS011;48140;45.486;9.226;2023-02-01T09:24:45;17.92;;;7.75;;
62153;SDS011;48140;45.486;9.226;2023-02-01T09:27:11;14.30;;;8.50;;
62153;SDS011;48140;45.486;9.226;2023-02-01T09:29:36;15.50;;;8.20;;
62153;SDS011;48140;45.486;9.226;2023-02-01T09:32:02;15.93;;;8.07;;
62153;SDS011;48140;45.486;9.226;2023-02-01T09:34:27;15.38;;;7.50;;
62153;SDS011;48140;45.486;9.226;2023-02-01T09:36:54;12.25;;;7.10;;
62153;SDS011;48140;45.486;9.226;2023-02-01T09:39:20;15.60;;;7.10;;
62153;SDS011;48140;45.486;9.226;2023-02-01T09:46:57;14.10;;;7.07;;
62153;SDS011;48140;45.486;9.226;2023-02-01T09:49:36;14.77;;;7.55;;
62153;SDS011;48140;45.486;9.226;2023-02-01T09:52:10;17.55;;;7.65;;
62153;SDS011;48140;45.486;9.226;2023-02-01T09:54:57;19.45;;;7.55;;
62153;SDS011;48140;45.486;9.226;2023-02-01T09:57:36;14.68;;;7.90;;
62153;SDS011;48140;45.486;9.226;2023-02-01T10:00:04;14.95;;;8.00;;
62153;SDS011;48140;45.486;9.226;2023-02-01T10:02:40;17.85;;;7.90;;
62153;SDS011;48140;45.486;9.226;2023-02-01T10:05:14;17.08;;;8.15;;
62153;SDS011;48140;45.486;9.226;2023-02-01T10:10:30;16.10;;;7.75;;
62153;SDS011;48140;45.486;9.226;2023-02-01T10:13:03;15.27;;;7.75;;
62153;SDS011;48140;45.486;9.226;2023-02-01T10:15:43;18.33;;;7.55;;
62153;SDS011;48140;45.486;9.226;2023-02-01T10:20:57;15.90;;;7.95;;
62153;SDS011;48140;45.486;9.226;2023-02-01T10:23:40;16.60;;;7.20;;
62153;SDS011;48140;45.486;9.226;2023-02-01T10:26:29;14.25;;;7.18;;
62153;SDS011;48140;45.486;9.226;2023-02-01T10:29:03;13.65;;;6.55;;
62153;SDS011;48140;45.486;9.226;2023-02-01T10:31:36;13.15;;;7.28;;
62153;SDS011;48140;45.486;9.226;2023-02-01T10:34:19;15.60;;;6.88;;
62153;SDS011;48140;45.486;9.226;2023-02-01T10:36:57;13.18;;;6.57;;
62153;SDS011;48140;45.486;9.226;2023-02-01T10:39:26;13.07;;;5.95;;
62153;SDS011;48140;45.486;9.226;2023-02-01T10:41:52;11.32;;;6.40;;
62153;SDS011;48140;45.486;9.226;2023-02-01T10:44:21;15.48;;;6.13;;
62153;SDS011;48140;45.486;9.226;2023-02-01T10:46:52;12.27;;;6.00;;
62153;SDS011;48140;45.486;9.226;2023-02-01T10:49:18;11.80;;;5.60;;
62153;SDS011;48140;45.486;9.226;2023-02-01T10:52:14;15.07;;;5.65;;
62153;SDS011;48140;45.486;9.226;2023-02-01T10:54:41;12.98;;;5.78;;
62153;SDS011;48140;45.486;9.226;2023-02-01T10:57:25;12.90;;;5.90;;
62153;SDS011;48140;45.486;9.226;2023-02-01T10:59:54;13.23;;;6.00;;
62153;SDS011;48140;45.486;9.226;2023-02-01T11:02:28;14.23;;;5.95;;
62153;SDS011;48140;45.486;9.226;2023-02-01T11:05:03;13.73;;;5.80;;
62153;SDS011;48140;45.486;9.226;2023-02-01T11:07:33;9.52;;;5.82;;
62153;SDS011;48140;45.486;9.226;2023-02-01T11:09:59;11.70;;;6.43;;
62153;SDS011;48140;45.486;9.226;2023-02-01T11:14:57;9.23;;;5.45;;
62153;SDS011;48140;45.486;9.226;2023-02-01T11:17:40;11.82;;;5.07;;
62153;SDS011;48140;45.486;9.226;2023-02-01T11:20:18;10.60;;;5.45;;
62153;SDS011;48140;45.486;9.226;2023-02-01T11:22:54;12.40;;;5.07;;
62153;SDS011;48140;45.486;9.226;2023-02-01T11:25:21;11.10;;;4.97;;
62153;SDS011;48140;45.486;9.226;2023-02-01T11:27:49;11.00;;;4.10;;
62153;SDS011;48140;45.486;9.226;2023-02-01T11:30:17;10.07;;;4.43;;
62153;SDS011;48140;45.486;9.226;2023-02-01T11:32:57;8.02;;;4.68;;
62153;SDS011;48140;45.486;9.226;2023-02-01T11:35:24;11.57;;;4.47;;
62153;SDS011;48140;45.486;9.226;2023-02-01T11:37:54;11.18;;;4.80;;
62153;SDS011;48140;45.486;9.226;2023-02-01T11:40:28;9.73;;;4.22;;
62153;SDS011;48140;45.486;9.226;2023-02-01T11:45:37;8.95;;;4.22;;
62153;SDS011;48140;45.486;9.226;2023-02-01T11:48:07;10.35;;;4.10;;
62153;SDS011;48140;45.486;9.226;2023-02-01T11:50:39;9.82;;;4.10;;
62153;SDS011;48140;45.486;9.226;2023-02-01T12:02:10;10.30;;;3.90;;
62153;SDS011;48140;45.486;9.226;2023-02-01T12:10:17;8.98;;;3.80;;
62153;SDS011;48140;45.486;9.226;2023-02-01T12:30:16;9.20;;;3.42;;
62153;SDS011;48140;45.486;9.226;2023-02-01T12:35:44;7.88;;;3.10;;
62153;SDS011;48140;45.486;9.226;2023-02-01T12:38:29;10.52;;;3.67;;
62153;SDS011;48140;45.486;9.226;2023-02-01T12:44:01;6.07;;;3.17;;
62153;SDS011;48140;45.486;9.226;2023-02-01T12:49:20;10.40;;;3.85;;
62153;SDS011;48140;45.486;9.226;2023-02-01T12:52:02;5.90;;;3.20;;
62153;SDS011;48140;45.486;9.226;2023-02-01T12:54:41;6.25;;;3.30;;
62153;SDS011;48140;45.486;9.226;2023-02-01T12:57:35;11.43;;;3.83;;
62153;SDS011;48140;45.486;9.226;2023-02-01T13:11:19;8.63;;;3.47;;
62153;SDS011;48140;45.486;9.226;2023-02-01T13:16:57;7.90;;;3.83;;
62153;SDS011;48140;45.486;9.226;2023-02-01T13:19:41;9.38;;;3.28;;
62153;SDS011;48140;45.486;9.226;2023-02-01T13:24:55;11.23;;;3.63;;
62153;SDS011;48140;45.486;9.226;2023-02-01T13:27:27;9.00;;;3.58;;
62153;SDS011;48140;45.486;9.226;2023-02-01T13:29:56;6.53;;;3.05;;
62153;SDS011;48140;45.486;9.226;2023-02-01T13:43:26;9.13;;;3.88;;
62153;SDS011;48140;45.486;9.226;2023-02-01T13:45:55;7.88;;;3.15;;
62153;SDS011;48140;45.486;9.226;2023-02-01T13:48:36;10.60;;;3.97;;
62153;SDS011;48140;45.486;9.226;2023-02-01T13:51:12;7.32;;;3.83;;
62153;SDS011;48140;45.486;9.226;2023-02-01T13:53:43;10.32;;;3.60;;
62153;SDS011;48140;45.486;9.226;2023-02-01T13:56:18;6.75;;;3.20;;
62153;SDS011;48140;45.486;9.226;2023-02-01T13:58:45;7.38;;;3.50;;
62153;SDS011;48140;45.486;9.226;2023-02-01T14:06:55;7.40;;;3.15;;
62153;SDS011;48140;45.486;9.226;2023-02-01T14:11:39;5.88;;;2.70;;
62153;SDS011;48140;45.486;9.226;2023-02-01T14:14:50;9.25;;;2.85;;
62153;SDS011;48140;45.486;9.226;2023-02-01T14:19:30;5.78;;;2.85;;
62153;SDS011;48140;45.486;9.226;2023-02-01T14:21:58;6.82;;;3.03;;
62153;SDS011;48140;45.486;9.226;2023-02-01T14:24:27;10.77;;;2.95;;
62153;SDS011;48140;45.486;9.226;2023-02-01T14:26:53;8.40;;;3.20;;
62153;SDS011;48140;45.486;9.226;2023-02-01T14:29:24;8.82;;;3.33;;
62153;SDS011;48140;45.486;9.226;2023-02-01T14:32:17;7.25;;;3.58;;
62153;SDS011;48140;45.486;9.226;2023-02-01T14:44:48;7.18;;;3.28;;
62153;SDS011;48140;45.486;9.226;2023-02-01T14:52:19;8.52;;;2.50;;
62153;SDS011;48140;45.486;9.226;2023-02-01T14:54:49;7.93;;;3.08;;
62153;SDS011;48140;45.486;9.226;2023-02-01T14:57:19;6.95;;;2.88;;
62153;SDS011;48140;45.486;9.226;2023-02-01T14:59:49;6.40;;;2.80;;
62153;SDS011;48140;45.486;9.226;2023-02-01T15:02:24;7.80;;;2.75;;
62153;SDS011;48140;45.486;9.226;2023-02-01T15:04:57;8.27;;;2.92;;
62153;SDS011;48140;45.486;9.226;2023-02-01T15:07:23;5.43;;;2.58;;
62153;SDS011;48140;45.486;9.226;2023-02-01T15:09:51;6.70;;;3.10;;
62153;SDS011;48140;45.486;9.226;2023-02-01T15:12:23;6.30;;;2.72;;
62153;SDS011;48140;45.486;9.226;2023-02-01T15:15:10;7.28;;;2.95;;
62153;SDS011;48140;45.486;9.226;2023-02-01T15:17:37;8.52;;;3.58;;
62153;SDS011;48140;45.486;9.226;2023-02-01T15:20:11;6.55;;;3.13;;
62153;SDS011;48140;45.486;9.226;2023-02-01T15:22:43;9.13;;;3.20;;
62153;SDS011;48140;45.486;9.226;2023-02-01T15:25:22;6.00;;;3.17;;
62153;SDS011;48140;45.486;9.226;2023-02-01T15:27:50;7.35;;;3.08;;
62153;SDS011;48140;45.486;9.226;2023-02-01T15:30:21;7.97;;;3.30;;
62153;SDS011;48140;45.486;9.226;2023-02-01T15:32:52;9.85;;;3.35;;
62153;SDS011;48140;45.486;9.226;2023-02-01T15:35:47;7.07;;;3.45;;
62153;SDS011;48140;45.486;9.226;2023-02-01T15:38:18;5.95;;;3.08;;
62153;SDS011;48140;45.486;9.226;2023-02-01T15:43:18;5.78;;;2.88;;
62153;SDS011;48140;45.486;9.226;2023-02-01T15:45:44;6.57;;;3.38;;
62153;SDS011;48140;45.486;9.226;2023-02-01T15:48:14;9.45;;;3.10;;
62153;SDS011;48140;45.486;9.226;2023-02-01T15:50:46;7.10;;;3.55;;
62153;SDS011;48140;45.486;9.226;2023-02-01T15:53:14;5.78;;;3.05;;
62153;SDS011;48140;45.486;9.226;2023-02-01T15:55:46;6.18;;;2.97;;
62153;SDS011;48140;45.486;9.226;2023-02-01T15:58:18;9.25;;;3.05;;
62153;SDS011;48140;45.486;9.226;2023-02-01T16:00:52;10.10;;;3.40;;
62153;SDS011;48140;45.486;9.226;2023-02-01T16:03:25;7.40;;;3.63;;
62153;SDS011;48140;45.486;9.226;2023-02-01T16:06:00;10.02;;;3.45;;
62153;SDS011;48140;45.486;9.226;2023-02-01T16:08:29;7.15;;;3.28;;
62153;SDS011;48140;45.486;9.226;2023-02-01T16:11:01;7.75;;;3.90;;
62153;SDS011;48140;45.486;9.226;2023-02-01T16:13:47;8.25;;;3.30;;
62153;SDS011;48140;45.486;9.226;2023-02-01T16:16:13;7.57;;;3.25;;
62153;SDS011;48140;45.486;9.226;2023-02-01T16:18:42;10.15;;;4.15;;
62153;SDS011;48140;45.486;9.226;2023-02-01T16:21:08;8.63;;;3.92;;
62153;SDS011;48140;45.486;9.226;2023-02-01T16:23:35;23.35;;;5.25;;
62153;SDS011;48140;45.486;9.226;2023-02-01T16:26:01;10.45;;;3.95;;
62153;SDS011;48140;45.486;9.226;2023-02-01T16:28:26;7.82;;;4.30;;
62153;SDS011;48140;45.486;9.226;2023-02-01T16:30:52;6.78;;;3.92;;
62153;SDS011;48140;45.486;9.226;2023-02-01T16:33:18;7.30;;;3.88;;
62153;SDS011;48140;45.486;9.226;2023-02-01T16:35:47;10.77;;;4.35;;
62153;SDS011;48140;45.486;9.226;2023-02-01T16:38:15;11.63;;;3.53;;
62153;SDS011;48140;45.486;9.226;2023-02-01T16:40:44;7.75;;;4.03;;
62153;SDS011;48140;45.486;9.226;2023-02-01T16:45:40;9.65;;;4.05;;
62153;SDS011;48140;45.486;9.226;2023-02-01T16:48:10;18.58;;;4.43;;
62153;SDS011;48140;45.486;9.226;2023-02-01T16:50:51;12.68;;;4.00;;
62153;SDS011;48140;45.486;9.226;2023-02-01T16:53:20;7.43;;;3.83;;
62153;SDS011;48140;45.486;9.226;2023-02-01T16:55:46;11.40;;;4.22;;
62153;SDS011;48140;45.486;9.226;2023-02-01T16:58:14;9.93;;;4.65;;
62153;SDS011;48140;45.486;9.226;2023-02-01T17:00:41;7.00;;;4.30;;
62153;SDS011;48140;45.486;9.226;2023-02-01T17:03:07;7.70;;;3.90;;
62153;SDS011;48140;45.486;9.226;2023-02-01T17:05:32;11.20;;;4.45;;
62153;SDS011;48140;45.486;9.226;2023-02-01T17:08:01;7.75;;;4.20;;
62153;SDS011;48140;45.486;9.226;2023-02-01T17:10:30;8.23;;;3.58;;
62153;SDS011;48140;45.486;9.226;2023-02-01T17:12:56;13.82;;;4.30;;